KHMN/HMN METAR and TAF weather

Enter ICAO airport designator
Station Type Date Time Source
KHMN METAR 2019/02/22 22:11 UTC NOAA

KHMN 222211Z AUTO 18018G25KT 10SM OVC090 15/M05 A2967 RMK AO2 WSHFT 02 SLP013 $


Station Type Date Time Source
KHMN Decoded METAR 2019/02/22 22:11 UTC NOAA

Holloman Air Force Base, NM, United States (KHMN) 32-51N 106-06W 1248M
Feb 22, 2019 - 05:11 PM EST / 2019.02.22 2211 UTC
Wind: from the S (180 degrees) at 21 MPH (18 KT) gusting to 29 MPH (25 KT):0
Visibility: 10 mile(s):0
Sky conditions: overcast
Temperature: 59 F (15 C)
Dew Point: 23 F (-5 C)
Relative Humidity: 24%
Pressure (altimeter): 29.67 in. Hg (1004 hPa)
ob: KHMN 222211Z AUTO 18018G25KT 10SM OVC090 15/M05 A2967 RMK AO2 WSHFT 02 SLP013
cycle: 22

Station Type Date Time Source
KHMN TAF 2019/02/22 17:24 UTC NOAA

TAF TAF COR KHMN 222220Z 2217/2323 19015G25KT 9999 FEW050 SCT080 520009 QNH2972INS
TEMPO 2218/2224 24025G35KT 9000 BLDU BKN080 530009
BECMG 2223/2224 24015G25KT 9000 -RA SCT020 BKN050 520009 QNH2992INS
BECMG 2305/2306 23012G18KT 9999 NSW BKN060 QNH2985INS
TEMPO 2306/2312 22015G25KT 520009
BECMG 2311/2312 22010G15KT 9999 FEW060 BKN080 QNH3000INS
BECMG 2317/2318 30012G20KT 9999 SCT080 QNH3015INS TX15/2221Z TN00/2312Z LAST NO
AMDS AFT 2222 NEXT 2501


Example: see airport list